createdAt,value
2018-12-20T00:01:05.495Z,1.40
2018-12-20T00:03:33.055Z,1.40
2018-12-20T00:06:00.672Z,1.40
2018-12-20T00:08:28.165Z,1.40
2018-12-20T00:10:55.796Z,1.50
2018-12-20T00:13:23.458Z,1.40
2018-12-20T00:15:51.152Z,1.40
2018-12-20T00:18:18.751Z,1.40
2018-12-20T00:20:46.230Z,1.40
2018-12-20T00:23:13.865Z,1.50
2018-12-20T00:25:41.555Z,1.50
2018-12-20T00:28:09.122Z,1.50
2018-12-20T00:30:36.590Z,1.50
2018-12-20T00:33:04.591Z,1.50
2018-12-20T00:35:32.257Z,1.50
2018-12-20T00:37:59.831Z,1.50
2018-12-20T00:40:27.428Z,1.50
2018-12-20T00:42:55.067Z,1.50
2018-12-20T00:45:22.559Z,1.50
2018-12-20T00:47:50.277Z,1.50
2018-12-20T00:50:18.089Z,1.50
2018-12-20T00:52:45.775Z,1.50
2018-12-20T00:55:13.580Z,1.50
2018-12-20T00:57:41.236Z,1.50
2018-12-20T01:00:09.243Z,1.50
2018-12-20T01:02:37.071Z,1.50
2018-12-20T01:05:04.812Z,1.50
2018-12-20T01:07:32.361Z,1.60
2018-12-20T01:09:59.808Z,1.60
2018-12-20T01:12:27.369Z,1.60
2018-12-20T01:14:54.900Z,1.60
2018-12-20T01:17:22.576Z,1.60
2018-12-20T01:19:50.044Z,1.60
2018-12-20T01:22:17.650Z,1.70
2018-12-20T01:24:45.213Z,1.60
2018-12-20T01:27:12.664Z,1.60
2018-12-20T01:29:40.220Z,1.60
2018-12-20T01:32:07.778Z,1.60
2018-12-20T01:34:35.261Z,1.60
2018-12-20T01:37:03.329Z,1.60
2018-12-20T01:39:30.954Z,1.60
2018-12-20T01:41:58.729Z,1.60
2018-12-20T01:44:26.324Z,1.60
2018-12-20T01:46:53.783Z,1.60
2018-12-20T01:49:21.250Z,1.50
2018-12-20T01:51:48.814Z,1.50
2018-12-20T01:54:16.520Z,1.50
2018-12-20T01:56:44.033Z,1.50
2018-12-20T01:59:11.660Z,1.50
2018-12-20T02:01:39.264Z,1.50
2018-12-20T02:04:06.827Z,1.60
2018-12-20T02:06:34.449Z,1.60
2018-12-20T02:09:02.018Z,1.60
2018-12-20T02:11:29.647Z,1.60
2018-12-20T02:13:57.782Z,1.60
2018-12-20T02:16:25.535Z,1.60
2018-12-20T02:18:53.365Z,1.60
2018-12-20T02:21:21.994Z,1.70
2018-12-20T02:23:49.525Z,1.70
2018-12-20T02:26:17.006Z,1.70
2018-12-20T02:28:44.790Z,1.60
2018-12-20T02:31:12.297Z,1.60
2018-12-20T02:33:39.916Z,1.60
2018-12-20T02:36:07.407Z,1.60
2018-12-20T02:38:34.861Z,1.60
2018-12-20T02:41:02.444Z,1.60
2018-12-20T02:43:30.238Z,1.50
2018-12-20T02:45:58.315Z,1.60
2018-12-20T02:48:25.943Z,1.50
2018-12-20T02:50:53.736Z,1.50
2018-12-20T02:53:21.599Z,1.40
2018-12-20T02:55:49.409Z,1.40
2018-12-20T02:58:17.068Z,1.40
2018-12-20T03:00:44.640Z,1.40
2018-12-20T03:03:12.289Z,1.30
2018-12-20T03:05:40.236Z,1.20
2018-12-20T03:08:08.120Z,1.20
2018-12-20T03:10:35.778Z,1.20
2018-12-20T03:13:03.619Z,1.10
2018-12-20T03:15:31.120Z,1.00
2018-12-20T03:17:58.730Z,1.00
2018-12-20T03:20:26.230Z,0.90
2018-12-20T03:22:53.745Z,0.90
2018-12-20T03:25:21.254Z,0.80
2018-12-20T03:27:48.715Z,0.80
2018-12-20T03:30:16.177Z,0.80
2018-12-20T03:32:43.793Z,0.80
2018-12-20T03:35:11.363Z,0.70
2018-12-20T03:37:38.975Z,0.80
2018-12-20T03:40:07.617Z,0.80
2018-12-20T03:42:35.313Z,0.80
2018-12-20T03:45:03.436Z,0.90
2018-12-20T03:47:31.027Z,0.90
2018-12-20T03:49:58.565Z,1.10
2018-12-20T03:52:26.033Z,1.20
2018-12-20T03:54:53.596Z,1.20
2018-12-20T03:57:21.420Z,1.20
2018-12-20T03:59:49.202Z,1.20
2018-12-20T04:02:16.961Z,1.20
2018-12-20T04:04:44.642Z,1.20
2018-12-20T04:07:12.196Z,1.10
2018-12-20T04:09:39.772Z,1.10
2018-12-20T04:12:07.319Z,1.10
2018-12-20T04:14:34.857Z,1.10
2018-12-20T04:17:02.341Z,1.10
2018-12-20T04:19:29.902Z,1.20
2018-12-20T04:21:57.541Z,1.20
2018-12-20T04:24:25.060Z,1.20
2018-12-20T04:26:52.819Z,1.10
2018-12-20T04:29:20.462Z,1.10
2018-12-20T04:31:48.007Z,1.10
2018-12-20T04:34:15.651Z,1.10
2018-12-20T04:36:43.305Z,1.10
2018-12-20T04:39:10.862Z,1.10
2018-12-20T04:41:38.446Z,1.10
2018-12-20T04:44:06.123Z,1.10
2018-12-20T04:46:33.750Z,1.10
2018-12-20T04:49:01.318Z,1.20
2018-12-20T04:51:28.886Z,1.20
2018-12-20T04:53:56.530Z,1.20
2018-12-20T04:56:24.146Z,1.30
2018-12-20T04:58:51.784Z,1.30
2018-12-20T05:01:19.401Z,1.30
2018-12-20T05:03:47.188Z,1.40
2018-12-20T05:06:14.698Z,1.40
2018-12-20T05:08:42.188Z,1.30
2018-12-20T05:11:09.731Z,1.30
2018-12-20T05:13:37.207Z,1.30
2018-12-20T05:16:04.999Z,1.30
2018-12-20T05:18:32.493Z,1.30
2018-12-20T05:21:00.042Z,1.30
2018-12-20T05:23:27.676Z,1.30
2018-12-20T05:25:55.330Z,1.30
2018-12-20T05:28:23.016Z,1.30
2018-12-20T05:30:50.588Z,1.30
2018-12-20T05:33:18.245Z,1.30
2018-12-20T05:35:45.821Z,1.30
2018-12-20T05:38:13.285Z,1.30
2018-12-20T05:40:40.797Z,1.30
2018-12-20T05:43:08.466Z,1.30
2018-12-20T05:45:36.170Z,1.30
2018-12-20T05:48:03.822Z,1.20
2018-12-20T05:50:31.379Z,1.20
2018-12-20T05:52:58.845Z,1.20
2018-12-20T05:55:26.436Z,1.20
2018-12-20T05:57:54.272Z,1.30
2018-12-20T06:00:21.967Z,1.30
2018-12-20T06:02:49.994Z,1.30
2018-12-20T06:05:17.519Z,1.30
2018-12-20T06:07:45.097Z,1.30
2018-12-20T06:10:12.830Z,1.30
2018-12-20T06:12:40.568Z,1.30
2018-12-20T06:15:08.267Z,1.30
2018-12-20T06:17:35.999Z,1.30
2018-12-20T06:20:04.676Z,1.40
2018-12-20T06:22:32.290Z,1.40
2018-12-20T06:24:59.756Z,1.40
2018-12-20T06:27:27.197Z,1.40
2018-12-20T06:29:54.670Z,1.40
2018-12-20T06:32:22.125Z,1.30
2018-12-20T06:34:49.612Z,1.40
2018-12-20T06:37:17.078Z,1.40
2018-12-20T06:39:44.529Z,1.40
2018-12-20T06:42:11.999Z,1.50
2018-12-20T06:44:39.457Z,1.40
2018-12-20T06:47:06.921Z,1.40
2018-12-20T06:52:08.401Z,1.40
2018-12-20T06:54:35.851Z,1.40
2018-12-20T06:57:03.329Z,1.30
2018-12-20T06:59:30.791Z,1.30
2018-12-20T07:01:58.246Z,1.30
2018-12-20T07:04:25.717Z,1.30
2018-12-20T07:06:53.194Z,1.30
2018-12-20T07:09:20.846Z,1.30
2018-12-20T07:11:48.321Z,1.20
2018-12-20T07:14:15.775Z,1.20
2018-12-20T07:16:43.236Z,1.20
2018-12-20T07:19:10.696Z,1.20
2018-12-20T07:21:38.141Z,1.20
2018-12-20T07:24:05.979Z,1.20
2018-12-20T07:26:33.469Z,1.10
2018-12-20T07:29:00.932Z,1.10
2018-12-20T07:31:28.392Z,1.20
2018-12-20T07:33:55.986Z,1.20
2018-12-20T07:36:23.554Z,1.20
2018-12-20T07:38:51.038Z,1.20
2018-12-20T07:41:18.504Z,1.20
2018-12-20T07:43:45.971Z,1.20
2018-12-20T07:46:13.416Z,1.30
2018-12-20T07:48:40.887Z,1.30
2018-12-20T07:51:08.354Z,1.40
2018-12-20T07:53:35.833Z,1.40
2018-12-20T07:56:03.282Z,1.50
2018-12-20T07:58:30.877Z,1.50
2018-12-20T08:00:58.330Z,1.60
2018-12-20T08:03:25.809Z,1.60
2018-12-20T08:05:53.279Z,1.60
2018-12-20T08:08:20.737Z,1.70
2018-12-20T08:10:48.228Z,1.70
2018-12-20T08:13:15.690Z,1.70
2018-12-20T08:15:43.156Z,1.70
2018-12-20T08:18:10.618Z,1.80
2018-12-20T08:20:38.085Z,1.80
2018-12-20T08:23:05.544Z,1.80
2018-12-20T08:25:33.008Z,1.70
2018-12-20T08:28:00.449Z,1.70
2018-12-20T08:30:27.918Z,1.70
2018-12-20T08:32:55.375Z,1.80
2018-12-20T08:35:22.836Z,1.80
2018-12-20T08:37:50.424Z,1.90
2018-12-20T08:40:17.919Z,2.00
2018-12-20T08:42:45.372Z,2.10
2018-12-20T08:45:12.838Z,2.30
2018-12-20T08:47:40.287Z,2.40
2018-12-20T08:50:08.021Z,2.50
2018-12-20T08:52:35.475Z,2.60
2018-12-20T08:55:03.009Z,2.60
2018-12-20T08:57:30.477Z,2.70
2018-12-20T08:59:57.935Z,2.80
2018-12-20T09:02:25.402Z,2.80
2018-12-20T09:04:52.874Z,2.90
2018-12-20T09:07:20.351Z,2.90
2018-12-20T09:09:47.986Z,3.00
2018-12-20T09:12:15.454Z,3.00
2018-12-20T09:14:42.902Z,3.10
2018-12-20T09:17:10.379Z,3.20
2018-12-20T09:19:37.813Z,3.30
2018-12-20T09:22:05.310Z,3.30
2018-12-20T09:24:32.773Z,3.40
2018-12-20T09:27:00.253Z,3.50
2018-12-20T09:29:27.714Z,3.50
2018-12-20T09:31:55.234Z,3.50
2018-12-20T09:34:22.708Z,3.60
2018-12-20T09:36:50.140Z,3.70
2018-12-20T09:39:17.618Z,3.70
2018-12-20T09:41:45.078Z,3.70
2018-12-20T09:44:12.554Z,3.70
2018-12-20T09:48:56.442Z,4.50
2018-12-20T09:51:23.886Z,3.70
2018-12-20T09:53:51.349Z,3.80
2018-12-20T09:56:18.799Z,3.80
2018-12-20T09:58:46.282Z,3.90
2018-12-20T10:01:13.738Z,4.00
2018-12-20T10:03:41.210Z,4.10
2018-12-20T10:06:08.679Z,4.20
2018-12-20T10:08:36.157Z,4.30
2018-12-20T10:11:03.671Z,4.20
2018-12-20T10:13:31.151Z,4.30
2018-12-20T10:15:58.704Z,4.40
2018-12-20T10:18:26.317Z,4.40
2018-12-20T10:20:53.793Z,4.40
2018-12-20T10:23:21.231Z,4.50
2018-12-20T10:25:48.708Z,4.60
2018-12-20T10:28:16.946Z,4.80
2018-12-20T10:30:44.414Z,5.00
2018-12-20T10:33:11.869Z,5.10
2018-12-20T10:35:39.349Z,5.10
2018-12-20T10:38:06.799Z,5.10
2018-12-20T10:40:34.278Z,5.10
2018-12-20T10:43:01.725Z,5.20
2018-12-20T10:45:29.215Z,5.10
2018-12-20T10:47:56.686Z,4.90
2018-12-20T10:50:24.145Z,4.80
2018-12-20T10:52:51.602Z,4.70
2018-12-20T10:55:19.135Z,4.70
2018-12-20T10:57:46.603Z,4.60
2018-12-20T11:00:14.041Z,4.60
2018-12-20T11:02:47.170Z,4.60
2018-12-20T11:05:20.272Z,4.60
2018-12-20T11:07:53.466Z,4.70
2018-12-20T11:10:23.522Z,4.80
2018-12-20T11:12:50.990Z,4.90
2018-12-20T11:15:18.546Z,5.00
2018-12-20T11:17:46.018Z,5.00
2018-12-20T11:20:13.465Z,4.80
2018-12-20T11:22:40.922Z,4.80
2018-12-20T11:25:08.372Z,4.80
2018-12-20T11:27:35.843Z,4.80
2018-12-20T11:30:04.955Z,4.80
2018-12-20T11:32:32.403Z,4.80
2018-12-20T11:34:59.865Z,4.70
2018-12-20T11:37:27.329Z,4.60
2018-12-20T11:39:59.502Z,4.70
2018-12-20T11:42:24.262Z,4.70
2018-12-20T11:44:51.732Z,4.80
2018-12-20T11:47:24.870Z,4.90
2018-12-20T11:49:52.337Z,5.00
2018-12-20T11:52:19.818Z,5.00
2018-12-20T11:54:47.318Z,5.10
2018-12-20T11:57:14.782Z,5.10
2018-12-20T11:59:42.260Z,5.00
2018-12-20T12:02:09.708Z,5.10
2018-12-20T12:04:37.190Z,5.10
2018-12-20T12:07:04.644Z,5.30
2018-12-20T12:09:32.125Z,5.40
2018-12-20T12:11:59.588Z,5.50
2018-12-20T12:14:27.141Z,5.50
2018-12-20T12:16:54.581Z,5.40
2018-12-20T12:19:22.053Z,5.40
2018-12-20T12:21:49.611Z,5.40
2018-12-20T12:24:17.288Z,5.40
2018-12-20T12:26:44.883Z,5.50
2018-12-20T12:29:12.353Z,5.60
2018-12-20T12:31:39.796Z,5.40
2018-12-20T12:34:07.265Z,5.40
2018-12-20T12:36:34.747Z,5.30
2018-12-20T12:39:02.352Z,5.30
2018-12-20T12:41:29.833Z,5.20
2018-12-20T12:43:57.304Z,5.20
2018-12-20T12:46:24.767Z,5.10
2018-12-20T12:48:52.216Z,5.10
2018-12-20T12:51:19.701Z,5.10
2018-12-20T12:53:47.168Z,5.10
2018-12-20T12:56:14.628Z,5.00
2018-12-20T12:58:42.083Z,5.00
2018-12-20T13:01:09.556Z,5.00
2018-12-20T13:03:37.028Z,5.00
2018-12-20T13:06:04.590Z,5.00
2018-12-20T13:08:32.049Z,5.00
2018-12-20T13:10:59.509Z,4.90
2018-12-20T13:13:26.974Z,4.90
2018-12-20T13:15:54.454Z,4.80
2018-12-20T13:18:21.897Z,4.80
2018-12-20T13:20:49.351Z,4.80
2018-12-20T13:23:16.860Z,4.80
2018-12-20T13:25:44.308Z,4.80
2018-12-20T13:28:11.787Z,4.80
2018-12-20T13:30:39.238Z,4.80
2018-12-20T13:33:06.702Z,4.90
2018-12-20T13:35:34.735Z,4.80
2018-12-20T13:38:02.394Z,4.80
2018-12-20T13:40:29.847Z,4.80
2018-12-20T13:42:57.319Z,4.70
2018-12-20T13:45:24.812Z,4.80
2018-12-20T13:47:53.233Z,4.80
2018-12-20T13:50:20.757Z,4.80
2018-12-20T13:52:48.266Z,4.80
2018-12-20T13:55:15.814Z,4.70
2018-12-20T13:57:43.266Z,4.90
2018-12-20T14:00:12.731Z,4.80
2018-12-20T14:02:40.242Z,4.80
2018-12-20T14:05:07.771Z,4.70
2018-12-20T14:07:35.233Z,4.70
2018-12-20T14:10:02.705Z,4.70
2018-12-20T14:12:30.157Z,4.60
2018-12-20T14:14:57.623Z,4.60
2018-12-20T14:17:25.078Z,4.60
2018-12-20T14:19:52.545Z,4.60
2018-12-20T14:22:20.004Z,4.60
2018-12-20T14:24:47.477Z,4.60
2018-12-20T14:27:14.994Z,4.60
2018-12-20T14:29:42.607Z,4.70
2018-12-20T14:32:10.067Z,4.70
2018-12-20T14:34:37.545Z,4.80
2018-12-20T14:37:04.998Z,4.80
2018-12-20T14:39:32.469Z,4.80
2018-12-20T14:41:59.995Z,4.80
2018-12-20T14:44:27.496Z,4.70
2018-12-20T14:46:54.950Z,4.70
2018-12-20T14:49:22.489Z,4.70
2018-12-20T14:51:49.977Z,4.60
2018-12-20T14:54:17.441Z,4.60
2018-12-20T14:56:44.904Z,4.50
2018-12-20T14:59:12.358Z,4.40
2018-12-20T15:01:39.869Z,4.40
2018-12-20T15:04:07.330Z,4.30
2018-12-20T15:06:34.808Z,4.30
2018-12-20T15:09:02.255Z,4.30
2018-12-20T15:11:29.743Z,4.30
2018-12-20T15:13:57.997Z,4.20
2018-12-20T15:16:25.487Z,4.30
2018-12-20T15:18:52.939Z,4.30
2018-12-20T15:21:20.394Z,4.30
2018-12-20T15:23:47.865Z,4.30
2018-12-20T15:26:15.342Z,4.30
2018-12-20T15:28:42.826Z,4.30
2018-12-20T15:31:10.302Z,4.30
2018-12-20T15:33:37.749Z,4.30
2018-12-20T15:36:05.220Z,4.30
2018-12-20T15:38:32.685Z,4.20
2018-12-20T15:41:02.048Z,4.20
2018-12-20T15:43:29.605Z,4.20
2018-12-20T15:45:57.047Z,4.20
2018-12-20T15:48:24.529Z,4.20
2018-12-20T15:50:51.974Z,4.20
2018-12-20T15:53:19.449Z,4.10
2018-12-20T15:55:46.901Z,4.00
2018-12-20T15:58:14.383Z,3.80
2018-12-20T16:00:41.846Z,3.60
2018-12-20T16:03:09.329Z,3.80
2018-12-20T16:05:36.781Z,3.80
2018-12-20T16:08:06.109Z,3.70
2018-12-20T16:10:33.622Z,3.70
2018-12-20T16:13:01.177Z,3.60
2018-12-20T16:15:28.642Z,3.50
2018-12-20T16:17:56.844Z,3.50
2018-12-20T16:20:24.312Z,3.30
2018-12-20T16:22:51.777Z,3.20
2018-12-20T16:25:19.266Z,3.30
2018-12-20T16:27:46.718Z,3.20
2018-12-20T16:30:14.190Z,3.30
2018-12-20T16:32:41.659Z,3.20
2018-12-20T16:35:09.213Z,3.10
2018-12-20T16:37:36.679Z,3.10
2018-12-20T16:40:05.227Z,3.00
2018-12-20T16:42:32.786Z,2.90
2018-12-20T16:45:00.257Z,2.80
2018-12-20T16:47:27.701Z,2.70
2018-12-20T16:49:55.178Z,2.60
2018-12-20T16:52:22.618Z,2.60
2018-12-20T16:54:50.121Z,2.50
2018-12-20T16:57:17.557Z,2.50
2018-12-20T16:59:45.034Z,2.30
2018-12-20T17:02:12.586Z,2.30
2018-12-20T17:04:40.030Z,2.20
2018-12-20T17:07:07.508Z,2.10
2018-12-20T17:09:35.129Z,2.00
2018-12-20T17:12:02.623Z,1.90
2018-12-20T17:14:30.101Z,1.90
2018-12-20T17:16:57.548Z,2.00
2018-12-20T17:19:25.003Z,1.90
2018-12-20T17:21:52.480Z,1.90
2018-12-20T17:24:19.978Z,1.90
2018-12-20T17:26:47.474Z,1.90
2018-12-20T17:29:14.987Z,1.90
2018-12-20T17:31:42.449Z,2.10
2018-12-20T17:34:09.907Z,2.10
2018-12-20T17:36:37.389Z,2.20
2018-12-20T17:39:06.639Z,2.30
2018-12-20T17:41:35.903Z,2.30
2018-12-20T17:44:04.250Z,2.50
2018-12-20T17:46:32.010Z,2.50
2018-12-20T17:48:59.447Z,2.60
2018-12-20T17:51:26.918Z,2.70
2018-12-20T17:53:54.382Z,2.80
2018-12-20T17:56:21.836Z,2.70
2018-12-20T17:58:49.324Z,2.70
2018-12-20T18:01:16.769Z,2.70
2018-12-20T18:03:44.259Z,2.70
2018-12-20T18:06:11.706Z,2.60
2018-12-20T18:08:39.191Z,2.60
2018-12-20T18:11:06.858Z,2.60
2018-12-20T18:13:34.334Z,2.60
2018-12-20T18:16:02.755Z,2.60
2018-12-20T18:18:30.855Z,2.50
2018-12-20T18:20:58.434Z,2.50
2018-12-20T18:23:26.009Z,2.40
2018-12-20T18:25:53.462Z,2.40
2018-12-20T18:28:20.921Z,2.30
2018-12-20T18:30:49.315Z,2.40
2018-12-20T18:33:16.789Z,2.40
2018-12-20T18:35:44.234Z,2.30
2018-12-20T18:38:11.704Z,2.20
2018-12-20T18:40:39.157Z,2.10
2018-12-20T18:43:06.808Z,2.10
2018-12-20T18:45:34.540Z,2.10
2018-12-20T18:48:02.094Z,2.10
2018-12-20T18:50:29.585Z,2.10
2018-12-20T18:52:57.044Z,2.10
2018-12-20T18:55:24.493Z,2.10
2018-12-20T18:57:51.957Z,2.10
2018-12-20T19:00:19.434Z,2.40
2018-12-20T19:02:46.904Z,2.50
2018-12-20T19:05:14.376Z,2.50
2018-12-20T19:07:41.818Z,2.60
2018-12-20T19:10:09.356Z,2.70
2018-12-20T19:12:37.503Z,2.60
2018-12-20T19:15:06.300Z,2.60
2018-12-20T19:17:33.903Z,2.60
2018-12-20T19:20:01.494Z,2.60
2018-12-20T19:22:29.106Z,2.50
2018-12-20T19:24:56.653Z,2.50
2018-12-20T19:27:24.123Z,2.50
2018-12-20T19:29:51.574Z,2.50
2018-12-20T19:32:19.042Z,2.40
2018-12-20T19:34:46.481Z,2.50
2018-12-20T19:37:13.970Z,2.50
2018-12-20T19:39:41.496Z,2.40
2018-12-20T19:42:10.964Z,2.40
2018-12-20T19:44:38.405Z,2.40
2018-12-20T19:47:05.875Z,2.40
2018-12-20T19:49:33.320Z,2.30
2018-12-20T19:52:00.799Z,2.30
2018-12-20T19:54:28.258Z,2.20
2018-12-20T19:56:55.729Z,2.20
2018-12-20T19:59:23.181Z,2.20
2018-12-20T20:01:50.653Z,2.20
2018-12-20T20:04:18.117Z,2.20
2018-12-20T20:06:45.597Z,2.20
2018-12-20T20:09:13.051Z,2.20
2018-12-20T20:11:40.532Z,2.10
2018-12-20T20:14:07.985Z,2.10
2018-12-20T20:16:35.588Z,2.10
2018-12-20T20:19:03.122Z,2.10
2018-12-20T20:21:30.591Z,2.00
2018-12-20T20:23:58.078Z,2.00
2018-12-20T20:26:25.519Z,2.00
2018-12-20T20:28:52.993Z,2.00
2018-12-20T20:31:20.476Z,2.00
2018-12-20T20:33:47.947Z,2.00
2018-12-20T20:36:15.409Z,2.00
2018-12-20T20:38:42.899Z,2.00
2018-12-20T20:41:10.359Z,2.00
2018-12-20T20:43:37.841Z,1.90
2018-12-20T20:46:05.277Z,1.90
2018-12-20T20:48:32.717Z,1.90
2018-12-20T20:51:00.191Z,1.90
2018-12-20T20:53:27.661Z,1.90
2018-12-20T20:55:55.136Z,1.80
2018-12-20T20:58:22.610Z,1.80
2018-12-20T21:00:50.133Z,1.80
2018-12-20T21:03:17.587Z,1.80
2018-12-20T21:05:45.050Z,1.70
2018-12-20T21:08:12.515Z,1.70
2018-12-20T21:10:39.999Z,1.70
2018-12-20T21:13:07.455Z,1.80
2018-12-20T21:15:34.913Z,1.70
2018-12-20T21:18:02.435Z,1.70
2018-12-20T21:20:30.737Z,1.70
2018-12-20T21:22:58.656Z,1.60
2018-12-20T21:25:26.126Z,1.50
2018-12-20T21:27:53.586Z,1.40
2018-12-20T21:30:21.044Z,1.40
2018-12-20T21:32:48.480Z,1.30
2018-12-20T21:35:15.958Z,1.30
2018-12-20T21:37:43.416Z,1.20
2018-12-20T21:40:11.007Z,1.10
2018-12-20T21:42:38.467Z,1.10
2018-12-20T21:45:06.733Z,1.10
2018-12-20T21:47:34.186Z,1.10
2018-12-20T21:50:01.670Z,1.10
2018-12-20T21:52:29.208Z,1.10
2018-12-20T21:54:56.657Z,1.10
2018-12-20T21:57:24.130Z,1.00
2018-12-20T21:59:51.578Z,1.00
2018-12-20T22:02:19.050Z,0.90
2018-12-20T22:04:46.494Z,0.80
2018-12-20T22:07:13.958Z,0.80
2018-12-20T22:09:41.422Z,0.70
2018-12-20T22:12:08.892Z,0.70
2018-12-20T22:14:36.330Z,0.70
2018-12-20T22:17:03.874Z,0.60
2018-12-20T22:19:31.320Z,0.50
2018-12-20T22:21:58.791Z,0.50
2018-12-20T22:24:26.247Z,0.50
2018-12-20T22:26:53.710Z,0.50
2018-12-20T22:29:21.170Z,0.50
2018-12-20T22:31:48.639Z,0.40
2018-12-20T22:34:16.086Z,0.40
2018-12-20T22:36:43.547Z,0.30
2018-12-20T22:39:11.030Z,0.30
2018-12-20T22:41:38.463Z,0.20
2018-12-20T22:44:05.926Z,0.20
2018-12-20T22:46:33.442Z,0.20
2018-12-20T22:49:00.898Z,0.20
2018-12-20T22:51:28.386Z,0.20
2018-12-20T22:53:55.876Z,0.10
2018-12-20T22:56:23.310Z,0.20
2018-12-20T22:58:50.778Z,0.30
2018-12-20T23:01:18.309Z,0.30
2018-12-20T23:03:45.844Z,0.40
2018-12-20T23:06:13.313Z,0.50
2018-12-20T23:08:40.774Z,0.60
2018-12-20T23:11:08.225Z,0.70
2018-12-20T23:13:35.663Z,0.80
2018-12-20T23:16:03.283Z,0.90
2018-12-20T23:18:30.716Z,1.10
2018-12-20T23:21:04.926Z,1.30
2018-12-20T23:23:27.626Z,1.50
2018-12-20T23:25:55.077Z,1.50
2018-12-20T23:28:22.535Z,1.60
2018-12-20T23:30:50.010Z,1.60
2018-12-20T23:33:17.454Z,1.70
2018-12-20T23:35:44.908Z,1.90
2018-12-20T23:38:12.353Z,1.90
2018-12-20T23:40:39.795Z,1.80
2018-12-20T23:43:07.258Z,1.70
2018-12-20T23:45:34.701Z,1.80
2018-12-20T23:48:02.225Z,1.70
2018-12-20T23:50:29.688Z,1.50
2018-12-20T23:52:57.148Z,1.70
2018-12-20T23:55:24.601Z,1.60
2018-12-20T23:57:52.060Z,1.40
